Roxbury, Pennsylvania
Current Conditions -  °F | °C
As of 2:53 PM on Thursday 29 Jan 2015 (Local Time) from KHGR Reporting Station
Unknown Precip Unknown Precip  
Wind Chill: 25°   Ceiling: 6000
Heat Index: 32°   Visibility: 10mi
Dew Point: 15°   Wind: 8mph
Humidity: 50%   Direction: 150°SSE
Pressure: 30.03"   Gusts: NA
Location:  40.11°N, 77.66°W
Report Text: KHGR 291953Z 15007KT 10SM UP OVC060 00/M09 A3003 RMK AO2 UPB15 SLP191 P0000 T00001094
Loading
Personal Weather Stations






























Interactive Weather Map New forecast layout! Learn more

10-Day Weather Forecast

Advertisements
Track Severe Weather on mobile